sensor_id;sensor_type;location;lat;lon;timestamp;P1;durP1;ratioP1;P2;durP2;ratioP2
16063;SDS011;8136;53.172;8.256;2024-02-26T04:10:51;16.67;;;10.20;;
16063;SDS011;8136;53.172;8.256;2024-02-26T04:13:38;15.50;;;9.57;;
16063;SDS011;8136;53.172;8.256;2024-02-26T04:16:43;16.50;;;9.87;;
16063;SDS011;8136;53.172;8.256;2024-02-26T04:25:45;18.70;;;10.17;;
16063;SDS011;8136;53.172;8.256;2024-02-26T05:03:12;14.90;;;8.90;;
16063;SDS011;8136;53.172;8.256;2024-02-26T05:05:56;13.30;;;8.33;;
16063;SDS011;8136;53.172;8.256;2024-02-26T05:08:26;12.47;;;8.13;;
16063;SDS011;8136;53.172;8.256;2024-02-26T05:11:31;10.67;;;7.20;;
16063;SDS011;8136;53.172;8.256;2024-02-26T05:14:55;10.67;;;7.73;;
16063;SDS011;8136;53.172;8.256;2024-02-26T05:18:47;12.20;;;7.13;;
16063;SDS011;8136;53.172;8.256;2024-02-26T05:21:52;11.50;;;7.30;;
16063;SDS011;8136;53.172;8.256;2024-02-26T05:24:42;9.90;;;7.10;;
16063;SDS011;8136;53.172;8.256;2024-02-26T05:27:55;12.13;;;7.93;;
16063;SDS011;8136;53.172;8.256;2024-02-26T05:44:56;12.60;;;7.73;;
16063;SDS011;8136;53.172;8.256;2024-02-26T05:51:18;11.97;;;7.57;;
16063;SDS011;8136;53.172;8.256;2024-02-26T05:54:28;10.77;;;7.60;;
16063;SDS011;8136;53.172;8.256;2024-02-26T05:57:48;12.73;;;8.50;;
16063;SDS011;8136;53.172;8.256;2024-02-26T06:34:03;11.87;;;8.10;;
16063;SDS011;8136;53.172;8.256;2024-02-26T06:39:01;11.17;;;8.40;;
16063;SDS011;8136;53.172;8.256;2024-02-26T06:39:54;11.80;;;8.20;;
16063;SDS011;8136;53.172;8.256;2024-02-26T06:43:00;11.80;;;8.23;;
16063;SDS011;8136;53.172;8.256;2024-02-26T06:45:29;10.60;;;8.07;;
16063;SDS011;8136;53.172;8.256;2024-02-26T06:51:05;8.67;;;7.27;;
16063;SDS011;8136;53.172;8.256;2024-02-26T06:53:45;9.97;;;7.17;;
16063;SDS011;8136;53.172;8.256;2024-02-26T06:56:13;11.20;;;7.93;;
16063;SDS011;8136;53.172;8.256;2024-02-26T06:58:40;10.37;;;6.90;;
16063;SDS011;8136;53.172;8.256;2024-02-26T07:01:16;9.80;;;7.50;;
16063;SDS011;8136;53.172;8.256;2024-02-26T07:04:02;10.80;;;7.53;;
16063;SDS011;8136;53.172;8.256;2024-02-26T07:06:30;12.03;;;7.73;;
16063;SDS011;8136;53.172;8.256;2024-02-26T07:08:58;13.23;;;7.73;;
16063;SDS011;8136;53.172;8.256;2024-02-26T07:11:34;10.93;;;7.17;;
16063;SDS011;8136;53.172;8.256;2024-02-26T07:14:06;9.63;;;7.53;;
16063;SDS011;8136;53.172;8.256;2024-02-26T07:16:33;10.03;;;7.40;;
16063;SDS011;8136;53.172;8.256;2024-02-26T07:40:26;9.60;;;6.63;;
16063;SDS011;8136;53.172;8.256;2024-02-26T08:00:06;9.73;;;6.30;;
16063;SDS011;8136;53.172;8.256;2024-02-26T08:49:20;7.17;;;5.10;;
16063;SDS011;8136;53.172;8.256;2024-02-26T08:52:16;6.30;;;5.00;;
16063;SDS011;8136;53.172;8.256;2024-02-26T08:55:31;7.47;;;5.23;;
16063;SDS011;8136;53.172;8.256;2024-02-26T08:58:30;6.93;;;5.10;;
16063;SDS011;8136;53.172;8.256;2024-02-26T09:01:25;7.13;;;5.40;;
16063;SDS011;8136;53.172;8.256;2024-02-26T09:04:16;8.27;;;5.70;;
16063;SDS011;8136;53.172;8.256;2024-02-26T09:08:00;6.60;;;5.13;;
16063;SDS011;8136;53.172;8.256;2024-02-26T09:10:26;8.07;;;6.17;;
16063;SDS011;8136;53.172;8.256;2024-02-26T09:12:59;7.53;;;5.53;;
16063;SDS011;8136;53.172;8.256;2024-02-26T09:15:26;7.97;;;5.90;;
16063;SDS011;8136;53.172;8.256;2024-02-26T09:20:43;9.53;;;5.57;;
16063;SDS011;8136;53.172;8.256;2024-02-26T18:06:58;13.20;;;8.93;;
16063;SDS011;8136;53.172;8.256;2024-02-26T18:20:13;12.43;;;7.87;;
16063;SDS011;8136;53.172;8.256;2024-02-26T18:23:14;12.73;;;8.13;;
16063;SDS011;8136;53.172;8.256;2024-02-26T18:25:52;12.97;;;7.90;;
16063;SDS011;8136;53.172;8.256;2024-02-26T18:28:38;14.90;;;8.87;;
16063;SDS011;8136;53.172;8.256;2024-02-26T18:31:30;13.40;;;8.20;;
16063;SDS011;8136;53.172;8.256;2024-02-26T18:34:19;12.60;;;8.23;;
16063;SDS011;8136;53.172;8.256;2024-02-26T18:40:04;12.73;;;8.13;;
16063;SDS011;8136;53.172;8.256;2024-02-26T18:42:47;13.40;;;9.10;;
16063;SDS011;8136;53.172;8.256;2024-02-26T18:45:28;13.20;;;8.70;;
16063;SDS011;8136;53.172;8.256;2024-02-26T18:47:58;14.53;;;9.20;;
16063;SDS011;8136;53.172;8.256;2024-02-26T18:50:34;14.87;;;8.80;;
16063;SDS011;8136;53.172;8.256;2024-02-26T18:53:18;14.07;;;9.07;;
16063;SDS011;8136;53.172;8.256;2024-02-26T18:56:12;14.27;;;8.63;;
16063;SDS011;8136;53.172;8.256;2024-02-26T18:58:54;12.67;;;8.93;;
16063;SDS011;8136;53.172;8.256;2024-02-26T19:01:33;14.60;;;8.80;;
16063;SDS011;8136;53.172;8.256;2024-02-26T19:04:12;11.70;;;7.63;;
16063;SDS011;8136;53.172;8.256;2024-02-26T19:06:50;15.17;;;9.07;;
16063;SDS011;8136;53.172;8.256;2024-02-26T19:09:20;13.10;;;8.50;;
16063;SDS011;8136;53.172;8.256;2024-02-26T19:12:00;10.97;;;7.53;;
16063;SDS011;8136;53.172;8.256;2024-02-26T19:14:37;12.43;;;8.20;;
16063;SDS011;8136;53.172;8.256;2024-02-26T19:17:27;12.93;;;8.20;;
16063;SDS011;8136;53.172;8.256;2024-02-26T19:20:07;12.67;;;8.63;;
16063;SDS011;8136;53.172;8.256;2024-02-26T19:23:04;10.47;;;7.87;;
16063;SDS011;8136;53.172;8.256;2024-02-26T19:25:39;11.43;;;8.17;;
16063;SDS011;8136;53.172;8.256;2024-02-26T19:28:33;14.47;;;8.43;;
16063;SDS011;8136;53.172;8.256;2024-02-26T19:31:12;12.17;;;7.53;;
16063;SDS011;8136;53.172;8.256;2024-02-26T19:33:54;12.80;;;7.60;;
16063;SDS011;8136;53.172;8.256;2024-02-26T19:36:46;13.57;;;8.57;;
16063;SDS011;8136;53.172;8.256;2024-02-26T23:03:11;19.07;;;11.37;;
16063;SDS011;8136;53.172;8.256;2024-02-26T23:12:23;19.43;;;11.43;;
16063;SDS011;8136;53.172;8.256;2024-02-26T23:31:35;19.27;;;10.87;;
16063;SDS011;8136;53.172;8.256;2024-02-26T23:44:13;19.10;;;11.33;;
